Glenwood, MN (56334)

12:49 PM CDT on August 22, 2014 (GMT -0500)
KMGK (Magic 107.1) FM | Change Station
CLOSE
Current Station
Personal Weather Station
Location: Glenwood, MN
Elevation: 1168 ft
Nearby Weather Stations

Elev 1168 ft 45.65 °N, 95.39 °W | Updated 0 second ago

Clear
Clear
78.7 °F
Feels Like 82 °F
N
2.0
Wind Variable Wind from SW
Gusts 5.0 mph

Today
High -- | Low -- °F
--% Chance of Precip.
Yesterday
High -- | Low -- °F
Precip. -- in
6:30 AM 8:17 PM
Waning Crescent, 7% visible
Pressure 30.00 in
Visibility 10.0 miles
Clouds Clear
Heat Index 82 °F
Dew Point 72 °F
Humidity 81%
Rainfall 0.00 in
Snow Depth Not available.
UV 9 out of 12
Pollen 9.00 out of 12
Air Quality Not available.
Flu Activity Not available.
METAR KGHW 221733Z AUTO 04003KT 10SM CLR 26/20 A3000 RMK AO2

More Conditions Fewer Conditions

Pressure 30.00 in
Visibility 10.0 miles
Clouds Clear
Heat Index 82 °F
Dew Point 72 °F
Humidity 81%
Rainfall 0.00 in
Snow Depth Not available.
UV 9 out of 12
Pollen 9.00 out of 12
Air Quality Not available.
Flu Activity Not available.
METAR KGHW 221733Z AUTO 04003KT 10SM CLR 26/20 A3000 RMK AO2

More Conditions Fewer Conditions

10-Day Weather Forecast

Almanac

Astronomy

Aug. 22, 2014 Rise Set
Actual Time 6:30 AM CDT 8:17 PM CDT
Civil Twilight 5:59 AM CDT 8:48 PM CDT
Nautical Twilight 5:20 AM CDT 9:27 PM CDT
Astronomical Twilight 4:38 AM CDT 10:09 PM CDT
Moon 3:50 AM CDT 6:29 PM CDT
Length of Visible Light 14h 49m
Length of Day
13h 46m
Tomorrow will be 2m 59s shorter.
Waning Crescent, 7% of the Moon is Illuminated
Today
Waning Crescent
Aug 25
New
Sep 2
First Quarter
Sep 8
Full
Sep 15
Last Quarter

Today's Extremes

State Highs State Lows

Community

WunderPhotos

Upload Photos

1,746,206 photos uploaded!

WunderBlogs® & News

Nearby

Snow Depth

Station Depth Elevation
No new snow has been reported.

Earthquake Activity

City Distance Mag. Time & Date
No recent earthquake activity has been reported nearby.
Minimum magnitude displayed is 2.5.

Coastal Water Temperatures

Place Temperature
No Stations Reporting

Nearby Weather Stations